Time;durP1;ratioP1;P1;durP2;ratioP2;P2;SDS_P1;SDS_P2;PMS_P1;PMS_P2;Temp;Humidity;BMP_temperature;BMP_pressure;BME280_temperature;BME280_humidity;BME280_pressure;Samples;Min_cycle;Max_cycle;Signal;HPM_P1;HPM_P2
2021/10/05 00:00:57;;;;;;;3.10;2.80;;;13.00;99.90;;;;;;6037062;23;20986;-68
2021/10/05 00:03:23;;;;;;;3.27;2.90;;;13.00;99.90;;;;;;6062006;23;20199;-68
2021/10/05 00:05:48;;;;;;;3.40;3.10;;;13.00;99.90;;;;;;6064200;23;20155;-68
2021/10/05 00:08:14;;;;;;;3.07;2.67;;;13.00;99.90;;;;;;6061476;23;20163;-68
2021/10/05 00:10:42;;;;;;;3.00;2.63;;;13.00;99.90;;;;;;6063085;23;20660;-69
2021/10/05 00:13:08;;;;;;;3.97;3.07;;;12.90;99.90;;;;;;6063085;23;20160;-69
2021/10/05 00:15:36;;;;;;;3.57;3.27;;;12.90;99.90;;;;;;6037023;23;20632;-68
2021/10/05 00:18:02;;;;;;;2.93;2.73;;;12.90;99.90;;;;;;6061292;23;20511;-68
2021/10/05 00:20:30;;;;;;;2.47;2.27;;;12.90;99.90;;;;;;6038399;23;21168;-69
2021/10/05 00:22:57;;;;;;;3.50;3.17;;;12.80;99.90;;;;;;6062025;23;20536;-68
2021/10/05 00:25:22;;;;;;;3.93;3.17;;;12.80;99.90;;;;;;6063672;23;20527;-68
2021/10/05 00:27:48;;;;;;;5.40;3.10;;;12.80;99.90;;;;;;6063753;23;21135;-68
2021/10/05 00:30:14;;;;;;;3.60;3.13;;;12.80;99.90;;;;;;6062625;23;20579;-68
2021/10/05 00:32:39;;;;;;;3.23;2.93;;;12.80;99.90;;;;;;6062936;23;20653;-68
2021/10/05 00:35:06;;;;;;;3.03;2.83;;;12.80;99.90;;;;;;6034188;23;20254;-68
2021/10/05 00:37:32;;;;;;;3.33;3.07;;;12.80;99.90;;;;;;6063437;23;20523;-68
2021/10/05 00:39:57;;;;;;;4.33;2.80;;;12.80;99.90;;;;;;6061980;23;20622;-69
2021/10/05 00:42:23;;;;;;;4.93;3.20;;;12.70;99.90;;;;;;6062781;23;20203;-68
2021/10/05 00:44:53;;;;;;;4.80;3.23;;;12.70;99.90;;;;;;6062219;23;20209;-68
2021/10/05 00:47:23;;;;;;;5.80;3.37;;;12.70;99.90;;;;;;6062377;23;20514;-68
2021/10/05 00:49:52;;;;;;;4.67;2.80;;;12.70;99.90;;;;;;6062525;23;20590;-68
2021/10/05 00:52:19;;;;;;;3.30;3.00;;;12.70;99.90;;;;;;6037946;23;20578;-68
2021/10/05 00:54:46;;;;;;;4.00;3.53;;;12.70;99.90;;;;;;6034422;23;20959;-68
2021/10/05 00:57:12;;;;;;;3.20;2.83;;;12.60;99.90;;;;;;6062808;23;20575;-68
2021/10/05 00:59:38;;;;;;;3.23;2.93;;;12.50;99.90;;;;;;6063081;23;20587;-68
2021/10/05 01:02:10;;;;;;;4.40;2.77;;;12.50;99.90;;;;;;6062430;23;20564;-68
2021/10/05 01:04:36;;;;;;;3.97;2.93;;;12.50;99.90;;;;;;6036331;23;20675;-68
2021/10/05 01:07:06;;;;;;;3.30;2.87;;;12.50;99.90;;;;;;6063470;23;20556;-68
2021/10/05 01:09:33;;;;;;;2.87;2.50;;;12.50;99.90;;;;;;6062881;23;20486;-69
2021/10/05 01:11:59;;;;;;;3.23;2.93;;;12.40;99.90;;;;;;6062099;23;20700;-68
2021/10/05 01:14:25;;;;;;;4.50;3.00;;;12.40;99.90;;;;;;6061798;23;21088;-68
2021/10/05 01:16:53;;;;;;;2.97;2.77;;;12.40;99.90;;;;;;6063586;23;20548;-68
2021/10/05 01:19:21;;;;;;;3.33;3.03;;;12.40;99.90;;;;;;6062392;23;20210;-69
2021/10/05 01:21:52;;;;;;;3.30;3.00;;;12.50;99.90;;;;;;6062388;23;20987;-69
2021/10/05 01:24:20;;;;;;;3.40;3.20;;;12.50;99.90;;;;;;6060980;23;20647;-68
2021/10/05 01:26:53;;;;;;;3.20;2.90;;;12.50;99.90;;;;;;6063585;23;20544;-67
2021/10/05 01:29:29;;;;;;;3.10;2.83;;;12.50;99.90;;;;;;6062773;23;20923;-67
2021/10/05 01:31:57;;;;;;;3.53;3.23;;;12.50;99.90;;;;;;6037592;23;20903;-67
2021/10/05 01:34:24;;;;;;;4.47;3.30;;;12.40;99.90;;;;;;6062262;23;20600;-68
2021/10/05 01:36:51;;;;;;;4.57;3.17;;;12.30;99.90;;;;;;6060138;23;20873;-67
2021/10/05 01:39:30;;;;;;;3.20;2.90;;;12.40;99.90;;;;;;6063663;23;20584;-68
2021/10/05 01:42:03;;;;;;;2.90;2.70;;;12.40;99.90;;;;;;6064139;23;20596;-68
2021/10/05 01:44:35;;;;;;;3.83;2.90;;;12.40;99.90;;;;;;6038664;23;20588;-68
2021/10/05 01:47:06;;;;;;;3.00;2.77;;;12.40;99.90;;;;;;6068424;23;20515;-68
2021/10/05 01:49:35;;;;;;;2.70;2.60;;;12.40;99.90;;;;;;6082852;23;20543;-69
2021/10/05 01:52:08;;;;;;;3.73;2.60;;;12.40;99.90;;;;;;6056532;23;20933;-68
2021/10/05 01:54:34;;;;;;;2.90;2.70;;;12.40;99.90;;;;;;6053681;23;20627;-68
2021/10/05 01:57:00;;;;;;;3.00;2.80;;;12.40;99.90;;;;;;6041634;23;20658;-67
2021/10/05 01:59:28;;;;;;;3.23;2.80;;;12.40;99.90;;;;;;6062626;23;20663;-68
2021/10/05 02:01:56;;;;;;;3.93;2.90;;;12.40;99.90;;;;;;6063196;23;20179;-68
2021/10/05 02:04:24;;;;;;;4.30;3.00;;;12.30;99.90;;;;;;6062581;23;21035;-68
2021/10/05 02:06:50;;;;;;;4.67;2.90;;;12.40;99.90;;;;;;6062214;23;20671;-68
2021/10/05 02:09:18;;;;;;;3.90;2.87;;;12.40;99.90;;;;;;6062764;23;20540;-68
2021/10/05 02:11:43;;;;;;;4.13;2.80;;;12.40;99.90;;;;;;6061600;23;20175;-68
2021/10/05 02:14:09;;;;;;;2.87;2.43;;;12.40;99.90;;;;;;6061421;23;20602;-68
2021/10/05 02:16:38;;;;;;;3.20;2.90;;;12.40;99.90;;;;;;6061491;23;20163;-68
2021/10/05 02:19:06;;;;;;;3.73;3.33;;;12.40;99.90;;;;;;6063297;23;20175;-68
2021/10/05 02:21:33;;;;;;;5.00;3.20;;;12.30;99.90;;;;;;6062491;23;20969;-68
2021/10/05 02:26:43;;;;;;;4.83;2.70;;;12.30;99.90;;;;;;6062768;23;20588;-67
2021/10/05 02:29:08;;;;;;;4.27;3.40;;;12.30;99.90;;;;;;6062011;23;20572;-67
2021/10/05 02:31:34;;;;;;;4.07;3.43;;;12.30;99.90;;;;;;6062106;23;20180;-67
2021/10/05 02:34:03;;;;;;;3.33;3.03;;;12.30;99.90;;;;;;6063374;23;20274;-67
2021/10/05 02:36:28;;;;;;;3.40;3.10;;;12.40;99.90;;;;;;6064910;23;20559;-67
2021/10/05 02:38:54;;;;;;;4.17;2.90;;;12.40;99.90;;;;;;6036691;23;20698;-67
2021/10/05 02:41:20;;;;;;;2.93;2.73;;;12.40;99.90;;;;;;6063929;23;20179;-67
2021/10/05 02:43:45;;;;;;;3.43;3.13;;;12.40;99.90;;;;;;6037892;23;20195;-67
2021/10/05 02:46:11;;;;;;;2.80;2.60;;;12.40;99.90;;;;;;6037736;23;20156;-68
2021/10/05 02:48:37;;;;;;;2.60;2.40;;;12.30;99.90;;;;;;6062913;23;20172;-68
2021/10/05 02:51:05;;;;;;;3.13;2.70;;;12.30;99.90;;;;;;6064056;23;20567;-68
2021/10/05 02:53:31;;;;;;;2.87;2.67;;;12.30;99.90;;;;;;6036561;23;20282;-68
2021/10/05 02:55:56;;;;;;;3.03;2.70;;;12.40;99.90;;;;;;6064544;23;20571;-67
2021/10/05 02:58:22;;;;;;;3.27;3.07;;;12.20;99.90;;;;;;6061445;23;20164;-67
2021/10/05 03:00:50;;;;;;;3.20;2.90;;;12.20;99.90;;;;;;6038168;23;20626;-68
2021/10/05 03:03:15;;;;;;;3.17;2.93;;;12.20;99.90;;;;;;6061377;23;20210;-67
2021/10/05 03:05:43;;;;;;;3.10;2.80;;;12.20;99.90;;;;;;6038903;23;20552;-67
2021/10/05 03:08:11;;;;;;;3.20;2.90;;;12.20;99.90;;;;;;6064130;23;20158;-67
2021/10/05 03:10:37;;;;;;;2.50;2.37;;;12.20;99.90;;;;;;6064568;23;20623;-67
2021/10/05 03:13:07;;;;;;;2.83;2.63;;;12.20;99.90;;;;;;6063219;23;20631;-67
2021/10/05 03:15:33;;;;;;;3.87;2.87;;;12.20;99.90;;;;;;6065106;23;20535;-67
2021/10/05 03:17:59;;;;;;;4.57;2.70;;;12.10;99.90;;;;;;6063382;23;20904;-66
2021/10/05 03:20:25;;;;;;;3.30;2.90;;;12.10;99.90;;;;;;6064417;23;20611;-67
2021/10/05 03:22:50;;;;;;;3.07;2.87;;;12.10;99.90;;;;;;6064582;23;20475;-68
2021/10/05 03:25:16;;;;;;;3.57;2.97;;;12.20;99.90;;;;;;6063996;23;20221;-68
2021/10/05 03:27:44;;;;;;;3.90;3.60;;;12.20;99.90;;;;;;6062743;23;20163;-67
2021/10/05 03:30:11;;;;;;;3.27;2.97;;;12.20;99.90;;;;;;6064829;23;20647;-68
2021/10/05 03:32:39;;;;;;;3.27;3.00;;;12.20;99.90;;;;;;6064672;23;20663;-68
2021/10/05 03:35:05;;;;;;;3.17;2.93;;;12.20;99.90;;;;;;6037425;23;21185;-68
2021/10/05 03:37:31;;;;;;;3.80;3.20;;;12.20;99.90;;;;;;6064130;23;20540;-68
2021/10/05 03:39:56;;;;;;;3.10;2.90;;;12.10;99.90;;;;;;6063300;23;20638;-68
2021/10/05 03:42:22;;;;;;;3.40;3.13;;;12.10;99.90;;;;;;6063537;23;20156;-68
2021/10/05 03:44:47;;;;;;;5.10;3.30;;;12.10;99.90;;;;;;6063081;23;20203;-67
2021/10/05 03:47:15;;;;;;;3.80;3.50;;;12.10;99.90;;;;;;6061031;23;20282;-67
2021/10/05 03:49:41;;;;;;;3.17;2.80;;;12.00;99.90;;;;;;6064368;23;20686;-67
2021/10/05 03:52:09;;;;;;;3.43;3.13;;;12.00;99.90;;;;;;6038336;23;20568;-68
2021/10/05 03:54:38;;;;;;;3.60;3.13;;;12.00;99.90;;;;;;6062312;23;20207;-67
2021/10/05 03:57:06;;;;;;;4.43;3.47;;;12.00;99.90;;;;;;6064202;23;20540;-68
2021/10/05 03:59:32;;;;;;;4.00;3.60;;;12.00;99.90;;;;;;6063954;23;20926;-67
2021/10/05 04:01:57;;;;;;;4.10;3.77;;;12.10;99.90;;;;;;6064097;23;20584;-67
2021/10/05 04:04:25;;;;;;;3.80;3.50;;;12.00;99.90;;;;;;6061302;23;20207;-68
2021/10/05 04:06:53;;;;;;;6.13;4.30;;;12.10;99.90;;;;;;6061361;23;20198;-67
2021/10/05 04:09:18;;;;;;;4.47;3.93;;;12.00;99.90;;;;;;6062832;23;20539;-68
2021/10/05 04:11:46;;;;;;;5.70;4.13;;;11.90;99.90;;;;;;6037604;23;20604;-67
2021/10/05 04:14:12;;;;;;;4.10;3.80;;;11.90;99.90;;;;;;6061388;23;20227;-67
2021/10/05 04:16:37;;;;;;;5.73;4.40;;;11.80;99.90;;;;;;6061983;23;20778;-68
2021/10/05 04:19:03;;;;;;;5.67;4.40;;;11.90;99.90;;;;;;6063266;23;20186;-67
2021/10/05 04:21:29;;;;;;;4.80;4.30;;;11.90;99.90;;;;;;6063121;23;20324;-68
2021/10/05 04:24:00;;;;;;;5.40;4.70;;;11.70;99.90;;;;;;6036682;23;20282;-67
2021/10/05 04:26:25;;;;;;;5.13;4.63;;;11.90;99.90;;;;;;6064556;23;20167;-68
2021/10/05 04:28:51;;;;;;;5.83;5.03;;;11.90;99.90;;;;;;6063728;23;20536;-68
2021/10/05 04:31:16;;;;;;;5.07;4.57;;;12.00;99.90;;;;;;6038451;23;20203;-69
2021/10/05 04:33:42;;;;;;;5.17;4.67;;;12.00;99.90;;;;;;6037321;23;20279;-68
2021/10/05 04:36:10;;;;;;;5.30;4.70;;;11.90;99.90;;;;;;6039361;23;20219;-68
2021/10/05 04:38:38;;;;;;;6.57;4.50;;;12.00;99.90;;;;;;6062961;23;20247;-68
2021/10/05 04:41:03;;;;;;;5.87;5.27;;;12.00;99.90;;;;;;6061638;23;20659;-68
2021/10/05 04:43:31;;;;;;;5.53;4.50;;;12.00;99.90;;;;;;6062755;23;20627;-68
2021/10/05 04:46:00;;;;;;;7.60;5.10;;;12.00;99.90;;;;;;6061154;23;20162;-69
2021/10/05 04:48:25;;;;;;;5.10;4.60;;;12.00;99.90;;;;;;6063015;23;20532;-68
2021/10/05 04:50:51;;;;;;;6.17;4.67;;;12.00;99.90;;;;;;6064191;23;20556;-68
2021/10/05 04:53:16;;;;;;;5.97;4.97;;;12.00;99.90;;;;;;6062625;23;20226;-68
2021/10/05 04:55:44;;;;;;;5.57;4.93;;;12.00;99.90;;;;;;6063202;23;20152;-68
2021/10/05 04:58:11;;;;;;;4.97;4.57;;;12.00;99.90;;;;;;6063555;23;20610;-68
2021/10/05 05:00:39;;;;;;;6.67;4.80;;;12.00;99.90;;;;;;6062494;23;20622;-67
2021/10/05 05:03:04;;;;;;;5.03;4.37;;;12.00;99.90;;;;;;6035358;23;21126;-68
2021/10/05 05:05:31;;;;;;;12.53;4.77;;;12.10;99.90;;;;;;6064250;23;20627;-68
2021/10/05 05:08:02;;;;;;;6.63;4.97;;;12.00;99.90;;;;;;6063387;23;20208;-68
2021/10/05 05:10:33;;;;;;;8.20;5.40;;;12.00;99.90;;;;;;6063026;23;21015;-68
2021/10/05 05:12:58;;;;;;;5.07;4.60;;;12.00;99.90;;;;;;6062532;23;20592;-68
2021/10/05 05:15:24;;;;;;;7.40;5.00;;;12.00;99.90;;;;;;6061221;23;20532;-68
2021/10/05 05:17:50;;;;;;;5.77;5.20;;;12.10;99.90;;;;;;6061182;23;20491;-68
2021/10/05 05:20:15;;;;;;;6.23;5.00;;;12.10;99.90;;;;;;6062189;23;20195;-68
2021/10/05 05:22:42;;;;;;;5.30;4.80;;;12.10;99.90;;;;;;6034515;23;20199;-68
2021/10/05 05:25:08;;;;;;;5.80;5.30;;;12.10;99.90;;;;;;6059362;23;20298;-68
2021/10/05 05:27:35;;;;;;;5.43;4.90;;;12.10;99.90;;;;;;6034973;23;20647;-69
2021/10/05 05:30:07;;;;;;;6.37;5.07;;;12.10;99.90;;;;;;6059829;23;20576;-68
2021/10/05 05:32:32;;;;;;;6.43;4.87;;;12.10;99.90;;;;;;6060082;23;20509;-68
2021/10/05 05:34:58;;;;;;;6.33;5.73;;;12.10;99.90;;;;;;6033316;23;20667;-66
2021/10/05 05:37:24;;;;;;;6.20;5.70;;;12.20;99.90;;;;;;6059994;23;20250;-67
2021/10/05 05:39:50;;;;;;;5.80;5.30;;;12.10;99.90;;;;;;6060258;23;20191;-68
2021/10/05 05:42:15;;;;;;;5.60;5.10;;;12.20;99.90;;;;;;6059949;23;20858;-68
2021/10/05 05:44:41;;;;;;;5.17;4.67;;;12.30;99.90;;;;;;6058220;23;20199;-69
2021/10/05 05:47:07;;;;;;;5.43;4.93;;;12.20;99.90;;;;;;6033874;23;21164;-68
2021/10/05 05:49:33;;;;;;;6.30;5.10;;;12.20;99.90;;;;;;6061148;23;20186;-68
2021/10/05 05:51:58;;;;;;;6.00;5.50;;;12.20;99.90;;;;;;6060397;23;20636;-68
2021/10/05 05:54:26;;;;;;;7.37;5.60;;;12.20;99.90;;;;;;6058976;23;20595;-66
2021/10/05 05:56:55;;;;;;;5.40;4.90;;;12.20;99.90;;;;;;6061043;23;20159;-65
2021/10/05 05:59:20;;;;;;;6.00;5.50;;;12.20;99.90;;;;;;6061703;23;20667;-69
2021/10/05 06:01:46;;;;;;;7.07;5.97;;;12.20;99.90;;;;;;6059837;23;20604;-69
2021/10/05 06:04:13;;;;;;;6.40;5.60;;;12.20;99.90;;;;;;6059500;23;20207;-68
2021/10/05 06:06:39;;;;;;;5.90;5.30;;;12.20;99.90;;;;;;6059038;23;20180;-67
2021/10/05 06:09:05;;;;;;;5.97;5.13;;;12.10;99.90;;;;;;6061092;23;20543;-68
2021/10/05 06:11:35;;;;;;;5.33;4.83;;;12.20;99.90;;;;;;6060181;23;20638;-67
2021/10/05 06:14:01;;;;;;;6.40;5.70;;;12.20;99.90;;;;;;6060239;23;20214;-67
2021/10/05 06:16:26;;;;;;;6.90;5.40;;;12.10;99.90;;;;;;6060700;23;20536;-67
2021/10/05 06:18:52;;;;;;;8.00;5.90;;;12.10;99.90;;;;;;6057785;23;20254;-68
2021/10/05 06:21:18;;;;;;;6.10;5.50;;;12.10;99.90;;;;;;6056945;23;20522;-66
2021/10/05 06:23:44;;;;;;;6.67;5.67;;;12.10;99.90;;;;;;6059320;23;20206;-67
2021/10/05 06:26:09;;;;;;;8.00;5.73;;;12.10;99.90;;;;;;6059107;23;20556;-67
2021/10/05 06:28:35;;;;;;;6.70;6.00;;;12.20;99.90;;;;;;6059870;23;20211;-68
2021/10/05 06:31:01;;;;;;;6.60;5.73;;;12.20;99.90;;;;;;6060189;23;20176;-68
2021/10/05 06:33:30;;;;;;;6.27;5.67;;;12.20;99.90;;;;;;6056561;23;20203;-67
2021/10/05 06:36:07;;;;;;;8.80;5.87;;;12.20;99.90;;;;;;6034279;23;20563;-66
2021/10/05 06:38:33;;;;;;;6.87;5.60;;;12.30;99.90;;;;;;6062404;23;20504;-66
2021/10/05 06:40:59;;;;;;;5.80;5.10;;;12.40;99.90;;;;;;6065500;23;21007;-66
2021/10/05 06:43:27;;;;;;;6.60;5.63;;;12.40;99.90;;;;;;6061574;23;20986;-66
2021/10/05 06:45:53;;;;;;;8.33;6.17;;;12.40;99.90;;;;;;6065053;23;20163;-64
2021/10/05 06:48:19;;;;;;;6.50;5.87;;;12.40;99.90;;;;;;6065417;23;20558;-65
2021/10/05 06:50:44;;;;;;;6.07;5.47;;;12.40;99.90;;;;;;6066311;23;20231;-66
2021/10/05 06:53:15;;;;;;;7.87;6.20;;;12.50;99.90;;;;;;6065351;23;20589;-66
2021/10/05 06:55:42;;;;;;;6.47;5.70;;;12.50;99.90;;;;;;6063189;23;20492;-66
2021/10/05 06:58:08;;;;;;;9.33;5.80;;;12.50;99.90;;;;;;6060477;23;20532;-66
2021/10/05 07:00:33;;;;;;;6.60;6.00;;;12.40;99.90;;;;;;6060621;23;20611;-65
2021/10/05 07:02:59;;;;;;;6.43;5.57;;;12.50;99.90;;;;;;6060808;23;20221;-66
2021/10/05 07:05:27;;;;;;;7.20;4.80;;;12.60;99.90;;;;;;6061152;23;20501;-66
2021/10/05 07:07:52;;;;;;;5.97;5.37;;;12.60;99.90;;;;;;6060092;23;20235;-66
2021/10/05 07:10:21;;;;;;;7.60;5.77;;;12.50;99.90;;;;;;6063630;23;20568;-66
2021/10/05 07:12:47;;;;;;;8.00;6.20;;;12.50;99.90;;;;;;6066425;23;20164;-67
2021/10/05 07:15:14;;;;;;;6.83;5.93;;;12.60;99.90;;;;;;6065420;23;20647;-66
2021/10/05 07:17:40;;;;;;;8.00;6.00;;;12.60;99.90;;;;;;6039285;23;20560;-66
2021/10/05 07:20:11;;;;;;;8.63;6.07;;;12.50;99.90;;;;;;6065494;23;20686;-66
2021/10/05 07:22:42;;;;;;;8.60;6.00;;;12.60;99.90;;;;;;6065072;23;20507;-66
2021/10/05 07:25:07;;;;;;;7.30;6.03;;;12.60;99.90;;;;;;6038018;23;20649;-66
2021/10/05 07:27:33;;;;;;;7.37;6.20;;;12.60;99.90;;;;;;6039887;23;21109;-66
2021/10/05 07:30:02;;;;;;;9.07;5.70;;;12.60;99.90;;;;;;6065905;23;21116;-65
2021/10/05 07:32:27;;;;;;;6.47;5.77;;;12.70;99.90;;;;;;6065794;23;20306;-65
2021/10/05 07:34:55;;;;;;;7.43;6.07;;;12.70;99.90;;;;;;6065111;23;20596;-66
2021/10/05 07:37:23;;;;;;;9.53;5.73;;;12.70;99.90;;;;;;6065356;23;20183;-66
2021/10/05 07:39:49;;;;;;;7.07;6.10;;;12.60;99.90;;;;;;6066317;23;20615;-66
2021/10/05 07:42:20;;;;;;;7.50;6.30;;;12.60;99.90;;;;;;6065648;23;20532;-66
2021/10/05 07:44:49;;;;;;;6.90;6.03;;;12.60;99.90;;;;;;6064014;23;20204;-66
2021/10/05 07:47:17;;;;;;;7.73;5.77;;;12.60;99.90;;;;;;6065014;23;20619;-67
2021/10/05 07:49:43;;;;;;;8.50;5.80;;;12.60;99.90;;;;;;6065487;23;20566;-67
2021/10/05 07:52:09;;;;;;;7.20;5.53;;;12.70;99.90;;;;;;6064855;23;21058;-67
2021/10/05 07:54:36;;;;;;;7.73;6.00;;;12.60;99.90;;;;;;6063810;23;20203;-66
2021/10/05 07:57:03;;;;;;;10.00;6.50;;;12.60;99.90;;;;;;6064543;23;20156;-66
2021/10/05 07:59:31;;;;;;;6.53;5.40;;;12.60;99.90;;;;;;6064880;23;20598;-67
2021/10/05 08:01:57;;;;;;;6.33;5.73;;;12.70;99.90;;;;;;6065280;23;20555;-67
2021/10/05 08:04:22;;;;;;;7.63;5.30;;;12.80;99.90;;;;;;6065328;23;20952;-66
2021/10/05 08:06:51;;;;;;;5.67;5.10;;;12.80;99.90;;;;;;6065965;23;20155;-66
2021/10/05 08:09:17;;;;;;;8.07;5.57;;;12.90;99.90;;;;;;6065356;23;20162;-66
2021/10/05 08:11:43;;;;;;;8.80;5.77;;;12.90;99.90;;;;;;6066197;23;20568;-66
2021/10/05 08:14:08;;;;;;;5.80;5.20;;;12.90;99.90;;;;;;6065133;23;20294;-65
2021/10/05 08:16:36;;;;;;;6.63;5.47;;;13.00;99.90;;;;;;6065556;23;20223;-66
2021/10/05 08:19:03;;;;;;;8.03;5.77;;;12.80;99.90;;;;;;6064672;23;20643;-66
2021/10/05 08:21:28;;;;;;;7.10;5.70;;;12.90;99.90;;;;;;6066043;23;20933;-66
2021/10/05 08:23:54;;;;;;;6.17;5.57;;;13.00;99.90;;;;;;6071017;23;20611;-67
2021/10/05 08:26:21;;;;;;;5.60;5.10;;;13.00;99.90;;;;;;6084473;23;20203;-67
2021/10/05 08:28:47;;;;;;;6.70;6.10;;;13.00;99.90;;;;;;6080367;23;20160;-66
2021/10/05 08:31:14;;;;;;;8.37;6.07;;;13.00;99.90;;;;;;6082122;23;20568;-66
2021/10/05 08:33:39;;;;;;;6.23;5.63;;;13.00;99.90;;;;;;6072510;23;21132;-67
2021/10/05 08:36:07;;;;;;;6.10;5.20;;;13.10;99.90;;;;;;6066317;23;20532;-65
2021/10/05 08:38:34;;;;;;;5.73;4.90;;;13.20;99.90;;;;;;6064640;23;20166;-65
2021/10/05 08:41:03;;;;;;;6.73;6.10;;;13.20;99.90;;;;;;6065783;23;20559;-67
2021/10/05 08:43:32;;;;;;;6.70;6.00;;;13.20;99.90;;;;;;6063777;23;20651;-66
2021/10/05 08:45:59;;;;;;;6.93;6.20;;;13.10;99.90;;;;;;6064210;23;20556;-66
2021/10/05 08:48:29;;;;;;;8.50;6.03;;;13.10;99.90;;;;;;6065089;23;20552;-66
2021/10/05 08:50:55;;;;;;;7.03;6.33;;;13.10;99.90;;;;;;6065508;23;20552;-65
2021/10/05 08:53:20;;;;;;;8.60;6.70;;;13.10;99.90;;;;;;6063743;23;20590;-67
2021/10/05 08:55:55;;;;;;;6.70;6.10;;;13.10;99.90;;;;;;6040245;23;20496;-67
2021/10/05 08:58:21;;;;;;;10.20;7.40;;;13.20;99.90;;;;;;6064816;23;20802;-66
2021/10/05 09:00:47;;;;;;;7.97;6.87;;;13.20;99.90;;;;;;6064857;23;20556;-66
2021/10/05 09:03:22;;;;;;;8.73;7.83;;;13.20;99.90;;;;;;6064806;23;20175;-66
2021/10/05 09:05:51;;;;;;;8.70;7.53;;;13.20;99.90;;;;;;6066050;23;20147;-65
2021/10/05 09:08:22;;;;;;;7.17;6.50;;;13.20;99.90;;;;;;6064426;23;20525;-66
2021/10/05 09:11:01;;;;;;;7.87;6.77;;;13.30;99.90;;;;;;6065590;23;20563;-66
2021/10/05 09:13:32;;;;;;;6.67;5.97;;;13.40;99.90;;;;;;6065138;23;20675;-66
2021/10/05 09:16:00;;;;;;;6.50;5.90;;;13.40;99.90;;;;;;6065925;23;20532;-66
2021/10/05 09:18:26;;;;;;;7.00;6.30;;;13.40;99.90;;;;;;6063819;23;20535;-66
2021/10/05 09:20:52;;;;;;;5.90;5.40;;;13.40;99.90;;;;;;6065548;23;20954;-65
2021/10/05 09:23:18;;;;;;;6.80;6.20;;;13.40;99.90;;;;;;6063945;23;20540;-66
2021/10/05 09:25:52;;;;;;;6.70;5.83;;;13.40;99.90;;;;;;6064862;23;20160;-65
2021/10/05 09:28:30;;;;;;;6.20;5.53;;;13.50;99.90;;;;;;6065420;23;20165;-66
2021/10/05 09:31:07;;;;;;;6.90;6.20;;;13.60;99.90;;;;;;6065286;23;20568;-66
2021/10/05 09:33:34;;;;;;;5.73;5.10;;;13.60;99.90;;;;;;6063640;23;20618;-66
2021/10/05 09:36:00;;;;;;;10.90;5.60;;;13.50;99.90;;;;;;6064439;23;20547;-66
2021/10/05 09:38:30;;;;;;;6.03;5.00;;;13.50;99.90;;;;;;6063389;23;20646;-66
2021/10/05 09:41:02;;;;;;;5.50;5.00;;;13.60;99.90;;;;;;6065216;23;20575;-66
2021/10/05 09:43:32;;;;;;;5.87;4.60;;;13.60;99.90;;;;;;6064031;23;20590;-66
2021/10/05 09:46:14;;;;;;;4.97;4.57;;;13.50;99.90;;;;;;6062649;23;20538;-65
2021/10/05 09:48:42;;;;;;;5.40;4.90;;;13.40;99.90;;;;;;6065018;23;20512;-66
2021/10/05 09:51:25;;;;;;;5.20;4.60;;;13.50;99.90;;;;;;6065312;23;20560;-67
2021/10/05 09:53:56;;;;;;;5.70;4.43;;;13.60;99.90;;;;;;6063095;23;20596;-66
2021/10/05 09:56:26;;;;;;;4.73;4.33;;;13.60;99.90;;;;;;6065267;23;20548;-66
2021/10/05 09:58:58;;;;;;;4.93;4.43;;;13.60;99.90;;;;;;6064695;23;20595;-67
2021/10/05 10:01:26;;;;;;;4.03;3.67;;;13.70;99.90;;;;;;6064821;23;20584;-66
2021/10/05 10:03:52;;;;;;;4.23;3.93;;;13.80;99.90;;;;;;6038073;23;21247;-66
2021/10/05 10:06:19;;;;;;;4.57;4.20;;;13.90;99.90;;;;;;6065474;23;20555;-65
2021/10/05 10:08:46;;;;;;;4.80;4.40;;;13.80;99.90;;;;;;6064645;23;20544;-66
2021/10/05 10:11:14;;;;;;;4.97;4.57;;;13.80;99.90;;;;;;6063769;23;20575;-67
2021/10/05 10:13:45;;;;;;;4.63;4.23;;;13.80;99.90;;;;;;6063950;23;20631;-66
2021/10/05 10:16:11;;;;;;;6.47;4.73;;;13.70;99.90;;;;;;6064831;23;20552;-66
2021/10/05 10:18:39;;;;;;;5.00;4.50;;;13.70;99.90;;;;;;6064554;23;20536;-66
2021/10/05 10:21:10;;;;;;;4.90;4.50;;;13.70;99.90;;;;;;6064369;23;20980;-66
2021/10/05 10:23:38;;;;;;;5.40;4.90;;;13.70;99.90;;;;;;6063586;23;20584;-65
2021/10/05 10:26:21;;;;;;;6.43;5.83;;;13.70;99.90;;;;;;6065019;23;20532;-65
2021/10/05 10:28:47;;;;;;;6.27;5.67;;;13.50;99.90;;;;;;6063461;23;20604;-66
2021/10/05 10:31:36;;;;;;;6.07;5.47;;;13.50;99.90;;;;;;6064775;23;20576;-66
2021/10/05 10:34:03;;;;;;;6.10;5.50;;;13.60;99.90;;;;;;6037756;23;20208;-66
2021/10/05 10:36:40;;;;;;;5.70;5.20;;;13.70;99.90;;;;;;6063667;23;20536;-66
2021/10/05 10:39:17;;;;;;;5.90;5.40;;;13.70;99.90;;;;;;6063853;23;20639;-66
2021/10/05 10:42:07;;;;;;;4.80;4.40;;;13.80;99.90;;;;;;6064312;23;20552;-67
2021/10/05 10:44:44;;;;;;;6.17;5.60;;;13.80;99.90;;;;;;6060853;23;20595;-67
2021/10/05 10:47:17;;;;;;;5.43;4.93;;;13.80;99.90;;;;;;6062031;23;20499;-67
2021/10/05 10:50:01;;;;;;;5.60;5.07;;;13.70;99.90;;;;;;6064566;23;20528;-67
2021/10/05 10:52:32;;;;;;;5.07;4.63;;;13.80;99.90;;;;;;6063873;23;20497;-67
2021/10/05 10:54:58;;;;;;;4.50;4.10;;;13.70;99.90;;;;;;6037953;23;20953;-66
2021/10/05 10:57:38;;;;;;;5.13;4.57;;;13.70;99.90;;;;;;6066069;23;20747;-67
2021/10/05 11:00:25;;;;;;;4.43;4.13;;;13.80;99.90;;;;;;6066655;23;20663;-67
2021/10/05 11:02:55;;;;;;;4.60;4.20;;;13.80;99.90;;;;;;6066251;23;21164;-67
2021/10/05 11:05:24;;;;;;;4.40;4.00;;;13.80;99.90;;;;;;6064187;23;20592;-67
2021/10/05 11:07:56;;;;;;;5.03;4.63;;;13.80;99.90;;;;;;6040367;23;20632;-67
2021/10/05 11:10:31;;;;;;;4.60;4.20;;;13.80;99.90;;;;;;6065772;23;20556;-67
2021/10/05 11:13:00;;;;;;;4.50;4.13;;;13.80;99.90;;;;;;6064147;23;20535;-66
2021/10/05 11:15:43;;;;;;;3.90;3.60;;;13.90;99.90;;;;;;6066539;23;20564;-66
2021/10/05 11:18:22;;;;;;;4.40;4.10;;;13.90;99.90;;;;;;6065239;23;20515;-68
2021/10/05 11:20:50;;;;;;;4.63;4.23;;;13.90;99.90;;;;;;6066584;23;20996;-67
2021/10/05 11:23:17;;;;;;;4.20;3.87;;;13.90;99.90;;;;;;6064996;23;20583;-67
2021/10/05 11:26:00;;;;;;;3.93;3.63;;;13.90;99.90;;;;;;6065806;23;20590;-67
2021/10/05 11:28:29;;;;;;;4.47;4.07;;;13.90;99.90;;;;;;6066214;23;20556;-67
2021/10/05 11:31:06;;;;;;;3.97;3.60;;;13.80;99.90;;;;;;6065581;23;20571;-66
2021/10/05 11:33:37;;;;;;;3.97;3.67;;;13.80;99.90;;;;;;6065638;23;21266;-68
2021/10/05 11:36:15;;;;;;;4.13;3.73;;;13.80;99.90;;;;;;6040072;23;20563;-67
2021/10/05 11:38:52;;;;;;;5.80;4.40;;;13.90;99.90;;;;;;6064642;23;20563;-66
2021/10/05 11:41:19;;;;;;;4.50;3.83;;;13.80;99.90;;;;;;6066144;23;21092;-68
2021/10/05 11:43:54;;;;;;;4.20;3.80;;;13.80;99.90;;;;;;6064960;23;20648;-67
2021/10/05 11:46:21;;;;;;;3.70;3.27;;;13.80;99.90;;;;;;6065641;23;20816;-68
2021/10/05 11:48:53;;;;;;;3.90;3.60;;;13.80;99.90;;;;;;6063533;23;20539;-67
2021/10/05 11:51:21;;;;;;;4.13;3.70;;;13.70;99.90;;;;;;6065428;23;20568;-68
2021/10/05 11:53:47;;;;;;;3.93;3.63;;;13.80;99.90;;;;;;6066301;23;20588;-67
2021/10/05 11:56:21;;;;;;;4.07;3.77;;;13.90;99.90;;;;;;6068207;23;20858;-67
2021/10/05 11:58:52;;;;;;;4.63;3.67;;;14.00;99.90;;;;;;6067809;23;20627;-67
2021/10/05 12:01:23;;;;;;;3.40;3.20;;;13.90;99.90;;;;;;6067253;23;20559;-67
2021/10/05 12:03:52;;;;;;;3.70;3.40;;;14.00;99.90;;;;;;6063434;23;20622;-67
2021/10/05 12:06:33;;;;;;;3.47;3.17;;;14.10;99.90;;;;;;6070471;23;20545;-67
2021/10/05 12:09:03;;;;;;;3.40;3.13;;;14.10;99.90;;;;;;6069462;23;20575;-67
2021/10/05 12:11:44;;;;;;;3.80;3.60;;;14.20;99.90;;;;;;6067898;23;20607;-67
2021/10/05 12:14:11;;;;;;;3.60;3.40;;;14.20;99.90;;;;;;6066551;23;21141;-68
2021/10/05 12:17:02;;;;;;;3.50;3.20;;;14.10;99.90;;;;;;6066121;23;20540;-67
2021/10/05 12:19:36;;;;;;;3.70;3.40;;;14.20;99.90;;;;;;6064851;23;20560;-67
2021/10/05 12:22:05;;;;;;;4.10;3.80;;;14.30;99.90;;;;;;6066527;23;20500;-68
2021/10/05 12:24:44;;;;;;;3.93;3.67;;;14.40;99.90;;;;;;6039096;23;20687;-67
2021/10/05 12:27:32;;;;;;;4.10;3.70;;;14.20;99.90;;;;;;6066250;23;20536;-67
2021/10/05 12:29:58;;;;;;;3.70;3.40;;;14.20;99.90;;;;;;6049353;23;20635;-66
2021/10/05 12:32:43;;;;;;;3.90;3.67;;;14.30;99.90;;;;;;6042992;23;21070;-67
2021/10/05 12:35:35;;;;;;;3.57;3.37;;;14.30;99.90;;;;;;6041204;23;20210;-67
2021/10/05 12:38:04;;;;;;;3.87;3.50;;;14.30;99.90;;;;;;6065623;23;20531;-67
2021/10/05 12:41:02;;;;;;;4.33;4.03;;;14.40;99.90;;;;;;6041349;23;21089;-67
2021/10/05 12:43:33;;;;;;;3.80;3.50;;;14.40;99.90;;;;;;6003383;23;20671;-67
2021/10/05 12:46:02;;;;;;;3.90;3.60;;;14.40;99.90;;;;;;6068082;23;20543;-67
2021/10/05 12:48:45;;;;;;;3.90;3.70;;;14.40;99.90;;;;;;6064717;23;21325;-67
2021/10/05 12:51:11;;;;;;;4.17;3.77;;;14.40;99.90;;;;;;6067175;23;20552;-67
2021/10/05 12:53:38;;;;;;;4.00;3.67;;;14.40;99.90;;;;;;6064571;23;20587;-67
2021/10/05 12:56:04;;;;;;;5.60;4.30;;;14.40;99.90;;;;;;6065967;23;20532;-67